sensor_id;sensor_type;location;lat;lon;timestamp;pressure;altitude;pressure_sealevel;temperature;humidity
18607;BME280;9433;42.678;23.360;2022-08-25T00:00:06;95059.63;;;24.74;71.31
18607;BME280;9433;42.678;23.360;2022-08-25T00:02:33;95036.53;;;24.29;71.66
18607;BME280;9433;42.678;23.360;2022-08-25T00:04:59;95068.09;;;24.72;71.78
18607;BME280;9433;42.678;23.360;2022-08-25T00:07:26;95072.69;;;24.49;72.55
18607;BME280;9433;42.678;23.360;2022-08-25T00:09:53;95078.00;;;24.61;72.83
18607;BME280;9433;42.678;23.360;2022-08-25T00:12:21;95059.16;;;24.52;72.33
18607;BME280;9433;42.678;23.360;2022-08-25T00:14:48;95063.69;;;24.45;73.07
18607;BME280;9433;42.678;23.360;2022-08-25T00:17:15;95040.03;;;24.29;72.59
18607;BME280;9433;42.678;23.360;2022-08-25T00:19:42;95038.47;;;24.28;72.75
18607;BME280;9433;42.678;23.360;2022-08-25T00:22:08;95080.31;;;24.08;74.30
18607;BME280;9433;42.678;23.360;2022-08-25T00:24:35;95039.91;;;23.55;75.58
18607;BME280;9433;42.678;23.360;2022-08-25T00:27:03;95056.88;;;23.84;75.68
18607;BME280;9433;42.678;23.360;2022-08-25T00:29:32;95079.06;;;24.21;74.67
18607;BME280;9433;42.678;23.360;2022-08-25T00:32:03;95069.88;;;24.45;73.44
18607;BME280;9433;42.678;23.360;2022-08-25T00:34:33;95076.03;;;24.42;72.40
18607;BME280;9433;42.678;23.360;2022-08-25T00:37:02;95077.53;;;24.59;72.89
18607;BME280;9433;42.678;23.360;2022-08-25T00:39:31;95049.72;;;24.46;72.13
18607;BME280;9433;42.678;23.360;2022-08-25T00:41:58;95069.66;;;24.73;72.06
18607;BME280;9433;42.678;23.360;2022-08-25T00:44:27;95085.31;;;24.06;75.10
18607;BME280;9433;42.678;23.360;2022-08-25T00:46:58;95079.81;;;24.37;73.56
18607;BME280;9433;42.678;23.360;2022-08-25T00:49:28;95082.00;;;24.67;72.70
18607;BME280;9433;42.678;23.360;2022-08-25T00:51:58;95081.13;;;24.63;72.33
18607;BME280;9433;42.678;23.360;2022-08-25T00:54:28;95085.94;;;24.34;74.29
18607;BME280;9433;42.678;23.360;2022-08-25T00:56:57;95077.91;;;24.57;73.10
18607;BME280;9433;42.678;23.360;2022-08-25T00:59:25;95031.16;;;23.62;75.15
18607;BME280;9433;42.678;23.360;2022-08-25T01:01:53;95063.06;;;24.00;75.53
18607;BME280;9433;42.678;23.360;2022-08-25T01:04:22;95057.38;;;24.05;74.47
18607;BME280;9433;42.678;23.360;2022-08-25T01:06:48;95062.28;;;24.00;76.24
18607;BME280;9433;42.678;23.360;2022-08-25T01:09:16;95065.84;;;24.39;73.92
18607;BME280;9433;42.678;23.360;2022-08-25T01:11:45;95055.03;;;24.58;73.39
18607;BME280;9433;42.678;23.360;2022-08-25T01:14:14;95052.09;;;24.67;73.01
18607;BME280;9433;42.678;23.360;2022-08-25T01:16:41;95045.50;;;24.49;74.22
18607;BME280;9433;42.678;23.360;2022-08-25T01:19:09;95037.69;;;24.28;74.26
18607;BME280;9433;42.678;23.360;2022-08-25T01:21:41;95048.75;;;24.54;73.51
18607;BME280;9433;42.678;23.360;2022-08-25T01:24:11;95017.91;;;24.47;72.92
18607;BME280;9433;42.678;23.360;2022-08-25T01:26:41;95052.09;;;24.48;74.31
18607;BME280;9433;42.678;23.360;2022-08-25T01:29:08;95053.75;;;24.36;74.69
18607;BME280;9433;42.678;23.360;2022-08-25T01:31:52;95047.66;;;24.59;73.13
18607;BME280;9433;42.678;23.360;2022-08-25T01:34:22;95052.06;;;24.28;75.30
18607;BME280;9433;42.678;23.360;2022-08-25T01:36:51;95041.09;;;24.41;73.45
18607;BME280;9433;42.678;23.360;2022-08-25T01:39:18;95036.78;;;24.59;72.48
18607;BME280;9433;42.678;23.360;2022-08-25T01:41:56;95047.06;;;24.50;73.23
18607;BME280;9433;42.678;23.360;2022-08-25T01:44:24;95011.03;;;24.14;74.02
18607;BME280;9433;42.678;23.360;2022-08-25T01:46:52;94999.03;;;24.34;73.03
18607;BME280;9433;42.678;23.360;2022-08-25T01:49:19;95061.03;;;24.68;72.91
18607;BME280;9433;42.678;23.360;2022-08-25T01:51:52;95054.81;;;24.12;74.58
18607;BME280;9433;42.678;23.360;2022-08-25T01:54:21;95011.16;;;24.21;73.65
18607;BME280;9433;42.678;23.360;2022-08-25T01:56:48;95049.47;;;24.35;74.85
18607;BME280;9433;42.678;23.360;2022-08-25T01:59:15;95052.50;;;24.69;73.47
18607;BME280;9433;42.678;23.360;2022-08-25T02:01:43;95028.03;;;24.30;73.86
18607;BME280;9433;42.678;23.360;2022-08-25T02:04:10;95049.00;;;24.49;74.03
18607;BME280;9433;42.678;23.360;2022-08-25T02:06:37;95036.69;;;24.36;74.07
18607;BME280;9433;42.678;23.360;2022-08-25T02:09:09;95004.25;;;24.43;73.14
18607;BME280;9433;42.678;23.360;2022-08-25T02:11:38;95046.75;;;24.71;72.52
18607;BME280;9433;42.678;23.360;2022-08-25T02:14:07;95034.63;;;23.94;73.86
18607;BME280;9433;42.678;23.360;2022-08-25T02:16:37;95034.78;;;24.56;72.92
18607;BME280;9433;42.678;23.360;2022-08-25T02:19:06;95030.91;;;24.37;72.84
18607;BME280;9433;42.678;23.360;2022-08-25T02:21:34;95018.72;;;24.47;72.62
18607;BME280;9433;42.678;23.360;2022-08-25T02:24:01;95017.28;;;23.99;73.95
18607;BME280;9433;42.678;23.360;2022-08-25T02:26:30;95038.31;;;24.21;74.04
18607;BME280;9433;42.678;23.360;2022-08-25T02:28:57;95036.34;;;24.37;73.80
18607;BME280;9433;42.678;23.360;2022-08-25T02:31:24;95004.38;;;24.31;72.48
18607;BME280;9433;42.678;23.360;2022-08-25T02:33:52;95027.78;;;24.55;72.58
18607;BME280;9433;42.678;23.360;2022-08-25T02:36:20;95008.81;;;24.39;72.56
18607;BME280;9433;42.678;23.360;2022-08-25T02:38:47;95033.09;;;24.32;72.02
18607;BME280;9433;42.678;23.360;2022-08-25T02:41:16;94997.63;;;24.05;73.04
18607;BME280;9433;42.678;23.360;2022-08-25T02:43:47;95028.34;;;24.45;71.81
18607;BME280;9433;42.678;23.360;2022-08-25T02:46:15;95034.16;;;24.08;72.94
18607;BME280;9433;42.678;23.360;2022-08-25T02:48:44;95020.47;;;23.85;73.20
18607;BME280;9433;42.678;23.360;2022-08-25T02:51:12;95029.34;;;24.01;73.16
18607;BME280;9433;42.678;23.360;2022-08-25T02:53:40;95036.94;;;24.11;73.11
18607;BME280;9433;42.678;23.360;2022-08-25T02:56:11;95023.38;;;24.11;72.84
18607;BME280;9433;42.678;23.360;2022-08-25T02:58:38;95040.47;;;24.31;72.23
18607;BME280;9433;42.678;23.360;2022-08-25T03:01:07;95005.94;;;24.12;71.86
18607;BME280;9433;42.678;23.360;2022-08-25T03:03:36;95044.91;;;24.39;71.84
18607;BME280;9433;42.678;23.360;2022-08-25T03:06:05;95017.59;;;24.32;71.27
18607;BME280;9433;42.678;23.360;2022-08-25T03:08:31;95013.28;;;24.12;72.13
18607;BME280;9433;42.678;23.360;2022-08-25T03:10:58;95022.44;;;24.23;71.36
18607;BME280;9433;42.678;23.360;2022-08-25T03:13:25;95043.91;;;23.77;72.26
18607;BME280;9433;42.678;23.360;2022-08-25T03:15:52;95049.41;;;23.97;72.56
18607;BME280;9433;42.678;23.360;2022-08-25T03:18:21;95047.00;;;23.76;73.18
18607;BME280;9433;42.678;23.360;2022-08-25T03:20:48;95047.75;;;23.60;73.78
18607;BME280;9433;42.678;23.360;2022-08-25T03:23:15;95054.69;;;23.58;73.69
18607;BME280;9433;42.678;23.360;2022-08-25T03:25:42;95041.09;;;23.89;72.59
18607;BME280;9433;42.678;23.360;2022-08-25T03:28:27;95038.41;;;24.25;70.88
18607;BME280;9433;42.678;23.360;2022-08-25T03:30:55;95014.34;;;23.88;72.65
18607;BME280;9433;42.678;23.360;2022-08-25T03:33:26;95047.78;;;24.27;71.03
18607;BME280;9433;42.678;23.360;2022-08-25T03:35:52;95057.19;;;24.33;70.86
18607;BME280;9433;42.678;23.360;2022-08-25T03:38:19;95021.25;;;24.21;69.89
18607;BME280;9433;42.678;23.360;2022-08-25T03:40:47;95031.25;;;24.36;70.49
18607;BME280;9433;42.678;23.360;2022-08-25T03:43:14;95024.44;;;24.26;71.53
18607;BME280;9433;42.678;23.360;2022-08-25T03:45:42;95048.75;;;24.54;70.82
18607;BME280;9433;42.678;23.360;2022-08-25T03:48:09;95045.88;;;24.47;70.93
18607;BME280;9433;42.678;23.360;2022-08-25T03:50:43;95038.44;;;24.64;69.79
18607;BME280;9433;42.678;23.360;2022-08-25T03:53:10;95046.97;;;24.27;70.88
18607;BME280;9433;42.678;23.360;2022-08-25T03:55:37;95036.34;;;24.37;69.73
18607;BME280;9433;42.678;23.360;2022-08-25T03:58:04;95035.81;;;24.48;70.51
18607;BME280;9433;42.678;23.360;2022-08-25T04:00:31;95025.84;;;24.55;69.06
18607;BME280;9433;42.678;23.360;2022-08-25T04:02:57;95032.47;;;24.38;70.59
18607;BME280;9433;42.678;23.360;2022-08-25T04:05:24;95016.84;;;23.97;71.32
18607;BME280;9433;42.678;23.360;2022-08-25T04:07:52;95001.31;;;23.78;71.24
18607;BME280;9433;42.678;23.360;2022-08-25T04:10:20;95037.88;;;24.19;70.95
18607;BME280;9433;42.678;23.360;2022-08-25T04:12:47;94993.00;;;24.06;70.18
18607;BME280;9433;42.678;23.360;2022-08-25T04:15:15;95034.31;;;24.15;72.01
18607;BME280;9433;42.678;23.360;2022-08-25T04:17:41;95033.31;;;24.23;70.92
18607;BME280;9433;42.678;23.360;2022-08-25T04:20:10;95026.97;;;24.35;69.46
18607;BME280;9433;42.678;23.360;2022-08-25T04:22:37;95038.63;;;24.35;70.16
18607;BME280;9433;42.678;23.360;2022-08-25T04:25:06;95000.34;;;24.41;69.58
18607;BME280;9433;42.678;23.360;2022-08-25T04:27:34;95019.88;;;24.11;70.91
18607;BME280;9433;42.678;23.360;2022-08-25T04:30:01;95013.38;;;24.15;71.15
18607;BME280;9433;42.678;23.360;2022-08-25T04:32:28;95017.91;;;24.47;70.06
18607;BME280;9433;42.678;23.360;2022-08-25T04:34:56;95022.59;;;24.30;69.56
18607;BME280;9433;42.678;23.360;2022-08-25T04:37:23;95002.00;;;24.29;68.97
18607;BME280;9433;42.678;23.360;2022-08-25T04:39:50;95000.00;;;24.07;69.23
18607;BME280;9433;42.678;23.360;2022-08-25T04:42:18;95001.75;;;24.34;68.86
18607;BME280;9433;42.678;23.360;2022-08-25T04:44:44;95027.56;;;24.44;69.36
18607;BME280;9433;42.678;23.360;2022-08-25T04:47:11;95050.59;;;24.50;68.89
18607;BME280;9433;42.678;23.360;2022-08-25T04:49:38;95036.16;;;24.11;70.00
18607;BME280;9433;42.678;23.360;2022-08-25T04:52:05;95047.78;;;24.27;70.42
18607;BME280;9433;42.678;23.360;2022-08-25T04:54:32;95026.34;;;24.42;68.61
18607;BME280;9433;42.678;23.360;2022-08-25T04:56:58;95055.41;;;24.22;69.94
18607;BME280;9433;42.678;23.360;2022-08-25T04:59:27;95044.25;;;24.27;69.46
18607;BME280;9433;42.678;23.360;2022-08-25T05:01:54;95050.03;;;24.41;69.23
18607;BME280;9433;42.678;23.360;2022-08-25T05:04:22;95011.44;;;24.35;68.94
18607;BME280;9433;42.678;23.360;2022-08-25T05:06:48;95055.88;;;24.82;67.95
18607;BME280;9433;42.678;23.360;2022-08-25T05:09:15;95051.09;;;24.75;67.48
18607;BME280;9433;42.678;23.360;2022-08-25T05:11:42;95045.00;;;24.82;68.43
18607;BME280;9433;42.678;23.360;2022-08-25T05:14:09;95045.38;;;24.61;68.33
18607;BME280;9433;42.678;23.360;2022-08-25T05:16:41;94993.28;;;24.39;68.00
18607;BME280;9433;42.678;23.360;2022-08-25T05:19:07;95033.78;;;24.45;69.11
18607;BME280;9433;42.678;23.360;2022-08-25T05:21:34;95018.09;;;23.83;70.77
18607;BME280;9433;42.678;23.360;2022-08-25T05:24:02;95032.41;;;24.35;70.29
18607;BME280;9433;42.678;23.360;2022-08-25T05:26:30;95014.84;;;24.48;69.27
18607;BME280;9433;42.678;23.360;2022-08-25T05:28:58;95017.16;;;24.30;69.60
18607;BME280;9433;42.678;23.360;2022-08-25T05:31:27;95003.16;;;24.28;69.00
18607;BME280;9433;42.678;23.360;2022-08-25T05:33:56;95022.59;;;24.89;68.37
18607;BME280;9433;42.678;23.360;2022-08-25T05:36:25;94984.09;;;24.64;68.13
18607;BME280;9433;42.678;23.360;2022-08-25T05:38:52;94989.25;;;24.92;66.92
18607;BME280;9433;42.678;23.360;2022-08-25T05:41:24;95011.34;;;24.67;68.43
18607;BME280;9433;42.678;23.360;2022-08-25T05:43:52;95035.88;;;25.36;66.40
18607;BME280;9433;42.678;23.360;2022-08-25T05:46:20;95012.03;;;24.83;67.49
18607;BME280;9433;42.678;23.360;2022-08-25T05:48:48;95029.97;;;24.88;68.23
18607;BME280;9433;42.678;23.360;2022-08-25T05:51:17;95040.19;;;24.95;67.63
18607;BME280;9433;42.678;23.360;2022-08-25T05:53:46;95037.41;;;24.91;68.13
18607;BME280;9433;42.678;23.360;2022-08-25T05:56:13;95034.75;;;24.95;67.61
18607;BME280;9433;42.678;23.360;2022-08-25T05:58:40;95040.44;;;25.28;66.60
18607;BME280;9433;42.678;23.360;2022-08-25T06:01:09;95039.41;;;25.37;66.83
18607;BME280;9433;42.678;23.360;2022-08-25T06:03:53;95043.03;;;25.67;65.48
18607;BME280;9433;42.678;23.360;2022-08-25T06:06:22;95020.88;;;25.69;64.93
18607;BME280;9433;42.678;23.360;2022-08-25T06:08:50;95029.09;;;25.49;65.82
18607;BME280;9433;42.678;23.360;2022-08-25T06:11:17;95013.47;;;25.43;65.66
18607;BME280;9433;42.678;23.360;2022-08-25T06:13:45;95033.41;;;25.73;65.53
18607;BME280;9433;42.678;23.360;2022-08-25T06:16:12;94983.41;;;25.36;65.65
18607;BME280;9433;42.678;23.360;2022-08-25T06:18:38;95010.03;;;25.72;65.13
18607;BME280;9433;42.678;23.360;2022-08-25T06:21:09;94990.13;;;25.19;67.46
18607;BME280;9433;42.678;23.360;2022-08-25T06:23:39;95026.00;;;25.47;66.36
18607;BME280;9433;42.678;23.360;2022-08-25T06:26:06;95005.69;;;25.68;65.43
18607;BME280;9433;42.678;23.360;2022-08-25T06:28:35;95027.41;;;25.64;65.59
18607;BME280;9433;42.678;23.360;2022-08-25T06:31:02;95028.41;;;25.79;65.74
18607;BME280;9433;42.678;23.360;2022-08-25T06:33:29;94992.16;;;25.98;64.32
18607;BME280;9433;42.678;23.360;2022-08-25T06:35:56;95028.03;;;26.34;64.19
18607;BME280;9433;42.678;23.360;2022-08-25T06:38:25;95029.44;;;26.20;64.12
18607;BME280;9433;42.678;23.360;2022-08-25T06:40:53;95036.72;;;26.43;63.77
18607;BME280;9433;42.678;23.360;2022-08-25T06:43:21;95005.91;;;26.39;63.88
18607;BME280;9433;42.678;23.360;2022-08-25T06:45:48;94998.47;;;26.06;64.38
18607;BME280;9433;42.678;23.360;2022-08-25T06:48:15;95034.78;;;26.43;64.38
18607;BME280;9433;42.678;23.360;2022-08-25T06:50:42;95005.56;;;26.40;63.41
18607;BME280;9433;42.678;23.360;2022-08-25T06:53:10;94984.28;;;26.50;61.98
18607;BME280;9433;42.678;23.360;2022-08-25T06:55:36;95037.41;;;27.00;61.49
18607;BME280;9433;42.678;23.360;2022-08-25T06:58:05;95038.19;;;26.63;62.82
18607;BME280;9433;42.678;23.360;2022-08-25T07:00:33;94995.03;;;26.69;62.07
18607;BME280;9433;42.678;23.360;2022-08-25T07:03:00;95034.25;;;26.98;61.55
18607;BME280;9433;42.678;23.360;2022-08-25T07:05:29;95002.78;;;27.08;61.06
18607;BME280;9433;42.678;23.360;2022-08-25T07:07:56;95039.72;;;27.32;60.59
18607;BME280;9433;42.678;23.360;2022-08-25T07:10:23;95043.31;;;27.43;60.86
18607;BME280;9433;42.678;23.360;2022-08-25T07:12:50;95035.00;;;27.29;60.57
18607;BME280;9433;42.678;23.360;2022-08-25T07:15:18;94999.84;;;27.20;60.17
18607;BME280;9433;42.678;23.360;2022-08-25T07:17:46;95030.00;;;27.38;59.44
18607;BME280;9433;42.678;23.360;2022-08-25T07:20:13;95025.81;;;27.10;60.46
18607;BME280;9433;42.678;23.360;2022-08-25T07:22:40;95007.91;;;27.09;62.10
18607;BME280;9433;42.678;23.360;2022-08-25T07:25:08;95005.31;;;26.49;62.65
18607;BME280;9433;42.678;23.360;2022-08-25T07:27:35;95005.56;;;26.74;61.78
18607;BME280;9433;42.678;23.360;2022-08-25T07:30:04;95044.34;;;26.94;61.12
18607;BME280;9433;42.678;23.360;2022-08-25T07:32:32;95036.13;;;27.28;59.78
18607;BME280;9433;42.678;23.360;2022-08-25T07:34:59;95015.59;;;27.41;59.74
18607;BME280;9433;42.678;23.360;2022-08-25T07:37:42;95031.00;;;27.63;60.82
18607;BME280;9433;42.678;23.360;2022-08-25T07:40:12;95006.47;;;26.21;62.02
18607;BME280;9433;42.678;23.360;2022-08-25T07:42:39;95009.75;;;27.02;61.01
18607;BME280;9433;42.678;23.360;2022-08-25T07:45:07;95015.09;;;27.28;60.05
18607;BME280;9433;42.678;23.360;2022-08-25T07:47:36;95001.28;;;27.10;60.11
18607;BME280;9433;42.678;23.360;2022-08-25T07:50:05;95044.81;;;27.81;60.13
18607;BME280;9433;42.678;23.360;2022-08-25T07:52:32;95011.69;;;27.86;59.87
18607;BME280;9433;42.678;23.360;2022-08-25T07:54:59;95049.94;;;27.90;59.63
18607;BME280;9433;42.678;23.360;2022-08-25T07:57:26;95025.78;;;27.48;58.83
18607;BME280;9433;42.678;23.360;2022-08-25T07:59:54;95015.53;;;27.78;57.59
18607;BME280;9433;42.678;23.360;2022-08-25T08:02:23;95015.69;;;28.03;57.48
18607;BME280;9433;42.678;23.360;2022-08-25T08:04:52;95009.50;;;28.10;57.29
18607;BME280;9433;42.678;23.360;2022-08-25T08:07:20;95004.00;;;28.06;57.74
18607;BME280;9433;42.678;23.360;2022-08-25T08:09:48;95007.13;;;28.01;57.00
18607;BME280;9433;42.678;23.360;2022-08-25T08:12:14;95017.06;;;27.31;59.43
18607;BME280;9433;42.678;23.360;2022-08-25T08:14:41;95024.81;;;27.70;57.30
18607;BME280;9433;42.678;23.360;2022-08-25T08:17:09;94997.78;;;28.13;56.95
18607;BME280;9433;42.678;23.360;2022-08-25T08:19:36;95020.78;;;28.82;56.96
18607;BME280;9433;42.678;23.360;2022-08-25T08:22:05;95013.06;;;29.12;53.79
18607;BME280;9433;42.678;23.360;2022-08-25T08:24:32;95009.53;;;29.19;54.10
18607;BME280;9433;42.678;23.360;2022-08-25T08:27:04;95000.97;;;29.42;53.17
18607;BME280;9433;42.678;23.360;2022-08-25T08:29:31;94995.88;;;29.55;52.93
18607;BME280;9433;42.678;23.360;2022-08-25T08:31:58;94986.88;;;29.76;51.97
18607;BME280;9433;42.678;23.360;2022-08-25T08:34:25;95004.84;;;30.02;51.18
18607;BME280;9433;42.678;23.360;2022-08-25T08:36:52;94969.69;;;29.64;50.67
18607;BME280;9433;42.678;23.360;2022-08-25T08:39:20;95007.59;;;29.59;51.91
18607;BME280;9433;42.678;23.360;2022-08-25T08:41:56;94982.44;;;28.71;52.57
18607;BME280;9433;42.678;23.360;2022-08-25T08:44:53;95009.13;;;29.10;50.64
18607;BME280;9433;42.678;23.360;2022-08-25T08:47:27;95006.44;;;29.45;49.19
18607;BME280;9433;42.678;23.360;2022-08-25T08:50:02;94992.66;;;28.99;48.96
18607;BME280;9433;42.678;23.360;2022-08-25T08:52:43;94998.81;;;28.56;50.61
18607;BME280;9433;42.678;23.360;2022-08-25T08:55:19;94997.44;;;29.59;47.58
18607;BME280;9433;42.678;23.360;2022-08-25T08:57:50;94995.09;;;29.93;49.30
18607;BME280;9433;42.678;23.360;2022-08-25T09:00:20;94993.50;;;29.92;46.43
18607;BME280;9433;42.678;23.360;2022-08-25T09:02:50;95002.84;;;30.16;46.00
18607;BME280;9433;42.678;23.360;2022-08-25T09:05:21;94980.94;;;30.09;46.30
18607;BME280;9433;42.678;23.360;2022-08-25T09:07:52;94980.59;;;29.93;45.95
18607;BME280;9433;42.678;23.360;2022-08-25T09:10:22;94976.34;;;29.70;45.83
18607;BME280;9433;42.678;23.360;2022-08-25T09:12:57;94999.75;;;29.96;44.55
18607;BME280;9433;42.678;23.360;2022-08-25T09:15:35;94968.38;;;30.26;43.10
18607;BME280;9433;42.678;23.360;2022-08-25T09:18:28;94990.81;;;30.98;43.94
18607;BME280;9433;42.678;23.360;2022-08-25T09:21:05;94988.31;;;30.45;42.64
18607;BME280;9433;42.678;23.360;2022-08-25T09:23:44;94990.72;;;31.09;43.43
18607;BME280;9433;42.678;23.360;2022-08-25T09:26:26;94989.06;;;31.22;42.65
18607;BME280;9433;42.678;23.360;2022-08-25T09:29:00;94994.16;;;30.43;41.58
18607;BME280;9433;42.678;23.360;2022-08-25T09:31:31;94982.56;;;29.89;42.30
18607;BME280;9433;42.678;23.360;2022-08-25T09:34:02;94959.88;;;29.88;44.20
18607;BME280;9433;42.678;23.360;2022-08-25T09:36:30;94973.09;;;30.15;43.43
18607;BME280;9433;42.678;23.360;2022-08-25T09:38:58;94980.16;;;30.19;42.88
18607;BME280;9433;42.678;23.360;2022-08-25T09:41:42;94967.66;;;30.08;45.26
18607;BME280;9433;42.678;23.360;2022-08-25T09:44:17;94962.25;;;29.18;45.32
18607;BME280;9433;42.678;23.360;2022-08-25T09:46:54;94940.34;;;29.29;45.34
18607;BME280;9433;42.678;23.360;2022-08-25T09:49:31;94957.09;;;28.99;42.90
18607;BME280;9433;42.678;23.360;2022-08-25T09:52:25;94957.94;;;29.78;42.70
18607;BME280;9433;42.678;23.360;2022-08-25T09:54:58;94968.47;;;29.83;44.85
18607;BME280;9433;42.678;23.360;2022-08-25T09:57:32;94964.94;;;29.93;41.64
18607;BME280;9433;42.678;23.360;2022-08-25T10:00:15;94996.28;;;29.78;42.29
18607;BME280;9433;42.678;23.360;2022-08-25T10:02:44;94973.97;;;29.40;41.74
18607;BME280;9433;42.678;23.360;2022-08-25T10:05:20;94994.31;;;29.86;41.94
18607;BME280;9433;42.678;23.360;2022-08-25T10:07:50;94956.72;;;29.93;42.80
18607;BME280;9433;42.678;23.360;2022-08-25T10:10:22;94977.03;;;30.21;42.75
18607;BME280;9433;42.678;23.360;2022-08-25T10:12:51;94993.06;;;30.26;42.46
18607;BME280;9433;42.678;23.360;2022-08-25T10:15:20;94977.44;;;30.05;42.45
18607;BME280;9433;42.678;23.360;2022-08-25T10:17:48;94988.34;;;30.34;43.76
18607;BME280;9433;42.678;23.360;2022-08-25T10:20:18;94982.78;;;30.52;42.85
18607;BME280;9433;42.678;23.360;2022-08-25T10:22:46;94976.31;;;30.98;41.56
18607;BME280;9433;42.678;23.360;2022-08-25T10:25:16;94974.94;;;31.27;41.25
18607;BME280;9433;42.678;23.360;2022-08-25T10:27:50;94984.69;;;31.35;38.97
18607;BME280;9433;42.678;23.360;2022-08-25T10:30:22;94961.84;;;31.49;39.82
18607;BME280;9433;42.678;23.360;2022-08-25T10:33:08;94971.75;;;31.40;37.09
18607;BME280;9433;42.678;23.360;2022-08-25T10:35:49;94980.91;;;31.15;39.48
18607;BME280;9433;42.678;23.360;2022-08-25T10:38:31;94964.94;;;30.96;39.20
18607;BME280;9433;42.678;23.360;2022-08-25T10:41:10;94971.84;;;31.18;39.67
18607;BME280;9433;42.678;23.360;2022-08-25T10:43:44;94958.78;;;30.81;37.93
18607;BME280;9433;42.678;23.360;2022-08-25T10:46:22;94953.22;;;30.92;36.89
18607;BME280;9433;42.678;23.360;2022-08-25T10:48:59;94942.72;;;31.31;37.97
18607;BME280;9433;42.678;23.360;2022-08-25T10:51:40;94942.72;;;31.31;39.73
18607;BME280;9433;42.678;23.360;2022-08-25T10:54:24;94946.19;;;32.25;37.69
18607;BME280;9433;42.678;23.360;2022-08-25T10:57:03;94968.66;;;32.17;36.51
18607;BME280;9433;42.678;23.360;2022-08-25T10:59:46;94936.41;;;32.55;35.54
18607;BME280;9433;42.678;23.360;2022-08-25T11:02:39;94955.13;;;31.99;36.83
18607;BME280;9433;42.678;23.360;2022-08-25T11:05:17;94948.34;;;32.07;38.34
18607;BME280;9433;42.678;23.360;2022-08-25T11:07:48;94953.25;;;32.26;36.94
18607;BME280;9433;42.678;23.360;2022-08-25T11:10:21;94950.16;;;32.21;37.61
18607;BME280;9433;42.678;23.360;2022-08-25T11:12:53;94949.75;;;32.22;36.59
18607;BME280;9433;42.678;23.360;2022-08-25T11:15:25;94935.06;;;32.67;37.42
18607;BME280;9433;42.678;23.360;2022-08-25T11:17:58;94941.09;;;31.90;38.19
18607;BME280;9433;42.678;23.360;2022-08-25T11:20:31;94896.81;;;32.49;36.72
18607;BME280;9433;42.678;23.360;2022-08-25T11:23:08;94892.75;;;31.92;37.72
18607;BME280;9433;42.678;23.360;2022-08-25T11:25:41;94916.84;;;32.77;37.40
18607;BME280;9433;42.678;23.360;2022-08-25T11:28:11;94896.59;;;32.33;37.11
18607;BME280;9433;42.678;23.360;2022-08-25T11:30:40;94920.16;;;32.91;36.85
18607;BME280;9433;42.678;23.360;2022-08-25T11:33:12;94913.19;;;33.37;37.03
18607;BME280;9433;42.678;23.360;2022-08-25T11:35:42;94883.69;;;33.38;34.76
18607;BME280;9433;42.678;23.360;2022-08-25T11:38:26;94897.03;;;33.39;34.90
18607;BME280;9433;42.678;23.360;2022-08-25T11:41:09;94896.06;;;32.45;37.80
18607;BME280;9433;42.678;23.360;2022-08-25T11:44:04;94906.75;;;33.44;34.86
18607;BME280;9433;42.678;23.360;2022-08-25T11:46:43;94879.56;;;33.50;34.82
18607;BME280;9433;42.678;23.360;2022-08-25T11:49:30;94901.06;;;33.08;35.72
18607;BME280;9433;42.678;23.360;2022-08-25T11:52:04;94876.13;;;33.18;34.45
18607;BME280;9433;42.678;23.360;2022-08-25T11:54:35;94871.28;;;33.26;34.07
18607;BME280;9433;42.678;23.360;2022-08-25T11:57:06;94870.25;;;33.16;33.92
18607;BME280;9433;42.678;23.360;2022-08-25T12:00:09;94890.72;;;34.26;32.69
18607;BME280;9433;42.678;23.360;2022-08-25T12:02:40;94856.31;;;34.30;34.09
18607;BME280;9433;42.678;23.360;2022-08-25T12:05:47;94890.03;;;33.58;34.46
18607;BME280;9433;42.678;23.360;2022-08-25T12:08:02;94860.25;;;34.13;33.55
18607;BME280;9433;42.678;23.360;2022-08-25T12:10:57;94894.38;;;33.99;33.05
18607;BME280;9433;42.678;23.360;2022-08-25T12:13:43;94860.72;;;33.44;33.20
18607;BME280;9433;42.678;23.360;2022-08-25T12:16:36;94888.34;;;33.64;34.67
18607;BME280;9433;42.678;23.360;2022-08-25T12:22:38;94864.69;;;34.27;32.78
18607;BME280;9433;42.678;23.360;2022-08-25T12:25:11;94862.91;;;34.36;32.55
18607;BME280;9433;42.678;23.360;2022-08-25T12:27:51;94867.66;;;34.36;32.97
18607;BME280;9433;42.678;23.360;2022-08-25T12:30:25;94902.03;;;34.31;32.42
18607;BME280;9433;42.678;23.360;2022-08-25T12:33:00;94895.47;;;34.05;31.48
18607;BME280;9433;42.678;23.360;2022-08-25T12:35:31;94873.09;;;33.80;31.54
18607;BME280;9433;42.678;23.360;2022-08-25T12:38:04;94873.09;;;33.80;31.69
18607;BME280;9433;42.678;23.360;2022-08-25T12:40:38;94860.50;;;33.59;30.79
18607;BME280;9433;42.678;23.360;2022-08-25T12:43:24;94881.97;;;34.11;32.38
18607;BME280;9433;42.678;23.360;2022-08-25T12:45:54;94877.75;;;33.83;32.02
18607;BME280;9433;42.678;23.360;2022-08-25T12:48:53;94892.16;;;34.34;31.04
18607;BME280;9433;42.678;23.360;2022-08-25T12:51:23;94875.81;;;33.60;33.79
18607;BME280;9433;42.678;23.360;2022-08-25T12:53:58;94897.72;;;32.96;34.49
18607;BME280;9433;42.678;23.360;2022-08-25T12:56:30;94893.91;;;32.87;33.21
18607;BME280;9433;42.678;23.360;2022-08-25T12:59:09;94884.66;;;32.73;33.64
18607;BME280;9433;42.678;23.360;2022-08-25T13:05:00;94898.50;;;32.93;33.37
18607;BME280;9433;42.678;23.360;2022-08-25T13:07:42;94881.94;;;32.12;34.47
18607;BME280;9433;42.678;23.360;2022-08-25T13:10:32;94896.69;;;32.56;34.33
18607;BME280;9433;42.678;23.360;2022-08-25T13:13:09;94903.25;;;32.01;34.30
18607;BME280;9433;42.678;23.360;2022-08-25T13:15:39;94874.34;;;31.89;36.01
18607;BME280;9433;42.678;23.360;2022-08-25T13:18:23;94891.09;;;31.98;36.76
18607;BME280;9433;42.678;23.360;2022-08-25T13:20:59;94898.28;;;30.99;36.62
18607;BME280;9433;42.678;23.360;2022-08-25T13:23:28;94852.38;;;31.03;36.35
18607;BME280;9433;42.678;23.360;2022-08-25T13:25:56;94886.56;;;31.43;36.33